<?xml version="1.0" encoding="UTF-8" standalone="no" ?>
<gpx xmlns="http://www.topografix.com/GPX/1/1" creator="MapSource 6.15.5" version="1.1"
xmlns:xsi="http://www.w3.org/2001/XMLSchema-instance"
xsi:schemaLocation="http://www.topografix.com/GPX/1/1 http://www.topografix.com/GPX/1/1/gpx.xsd">

  <trk>
    <trkseg>
      <trkpt lat="48.115587" lon="11.285083">
       <time>2017-05-16T08:02:36Z</time>
       <course>0.0</course>
  <speed>0.7</speed>
       </trkpt>
      <trkpt lat="48.115587" lon="11.285083">
       <time>2017-05-16T08:02:36Z</time>
       <course>0.0</course>
  <speed>0.7</speed>
       </trkpt>
      <trkpt lat="48.115588" lon="11.285033">
       <time>2017-05-16T08:02:38Z</time>
       <course>0.0</course>
  <speed>0.2</speed>
       </trkpt>
      <trkpt lat="48.115598" lon="11.284993">
       <time>2017-05-16T08:02:40Z</time>
       <course>0.0</course>
  <speed>0.5</speed>
       </trkpt>
      <trkpt lat="48.115595" lon="11.284968">
       <time>2017-05-16T08:02:42Z</time>
       <course>0.0</course>
  <speed>0.3</speed>
       </trkpt>
      <trkpt lat="48.115592" lon="11.284957">
       <time>2017-05-16T08:02:44Z</time>
       <course>0.0</course>
  <speed>0.3</speed>
       </trkpt>
      <trkpt lat="48.115587" lon="11.284942">
       <time>2017-05-16T08:02:46Z</time>
       <course>0.0</course>
  <speed>0.3</speed>
       </trkpt>
      <trkpt lat="48.115590" lon="11.284937">
       <time>2017-05-16T08:02:48Z</time>
       <course>0.0</course>
  <speed>0.4</speed>
       </trkpt>
      <trkpt lat="48.115585" lon="11.284940">
       <time>2017-05-16T08:02:50Z</time>
       <course>0.0</course>
  <speed>0.3</speed>
       </trkpt>
      <trkpt lat="48.115582" lon="11.284935">
       <time>2017-05-16T08:02:52Z</time>
       <course>0.0</course>
  <speed>0.5</speed>
       </trkpt>
      <trkpt lat="48.115585" lon="11.284908">
       <time>2017-05-16T08:02:54Z</time>
       <course>0.0</course>
  <speed>0.3</speed>
       </trkpt>
      <trkpt lat="48.115590" lon="11.284898">
       <time>2017-05-16T08:02:56Z</time>
       <course>0.0</course>
  <speed>0.3</speed>
       </trkpt>
      <trkpt lat="48.115582" lon="11.284898">
       <time>2017-05-16T08:02:58Z</time>
       <course>0.0</course>
  <speed>0.2</speed>
       </trkpt>
      <trkpt lat="48.115588" lon="11.284885">
       <time>2017-05-16T08:03:00Z</time>
       <course>0.0</course>
  <speed>0.2</speed>
       </trkpt>
      <trkpt lat="48.115588" lon="11.284885">
       <time>2017-05-16T08:03:02Z</time>
       <course>0.0</course>
  <speed>0.0</speed>
       </trkpt>
      <trkpt lat="48.115588" lon="11.284885">
       <time>2017-05-16T08:03:04Z</time>
       <course>0.0</course>
  <speed>0.0</speed>
       </trkpt>
      <trkpt lat="48.115588" lon="11.284885">
       <time>2017-05-16T08:03:06Z</time>
       <course>0.0</course>
  <speed>0.0</speed>
       </trkpt>
      <trkpt lat="48.115588" lon="11.284885">
       <time>2017-05-16T08:03:08Z</time>
       <course>0.0</course>
  <speed>0.0</speed>
       </trkpt>
      <trkpt lat="48.115588" lon="11.284885">
       <time>2017-05-16T08:03:10Z</time>
       <course>0.0</course>
  <speed>0.0</speed>
       </trkpt>
      <trkpt lat="48.115588" lon="11.284885">
       <time>2017-05-16T08:03:12Z</time>
       <course>0.0</course>
  <speed>0.0</speed>
       </trkpt>
      <trkpt lat="48.115588" lon="11.284885">
       <time>2017-05-16T08:03:14Z</time>
       <course>0.0</course>
  <speed>0.0</speed>
       </trkpt>
      <trkpt lat="48.115588" lon="11.284885">
       <time>2017-05-16T08:03:16Z</time>
       <course>0.0</course>
  <speed>0.0</speed>
       </trkpt>
      <trkpt lat="48.115582" lon="11.284865">
       <time>2017-05-16T08:03:18Z</time>
       <course>0.0</course>
  <speed>0.1</speed>
       </trkpt>
      <trkpt lat="48.115582" lon="11.284863">
       <time>2017-05-16T08:03:20Z</time>
       <course>0.0</course>
  <speed>0.0</speed>
       </trkpt>
      <trkpt lat="48.115582" lon="11.284863">
       <time>2017-05-16T08:03:22Z</time>
       <course>0.0</course>
  <speed>0.0</speed>
       </trkpt>
      <trkpt lat="48.115578" lon="11.284852">
       <time>2017-05-16T08:03:24Z</time>
       <course>0.0</course>
  <speed>0.1</speed>
       </trkpt>
      <trkpt lat="48.115580" lon="11.284837">
       <time>2017-05-16T08:03:26Z</time>
       <course>0.0</course>
  <speed>0.0</speed>
       </trkpt>
      <trkpt lat="48.115580" lon="11.284837">
       <time>2017-05-16T08:03:28Z</time>
       <course>0.0</course>
  <speed>0.0</speed>
       </trkpt>
      <trkpt lat="48.115580" lon="11.284837">
       <time>2017-05-16T08:03:30Z</time>
       <course>0.0</course>
  <speed>0.0</speed>
       </trkpt>
      <trkpt lat="48.115580" lon="11.284837">
       <time>2017-05-16T08:03:32Z</time>
       <course>0.0</course>
  <speed>0.0</speed>
       </trkpt>
      <trkpt lat="48.115580" lon="11.284837">
       <time>2017-05-16T08:03:34Z</time>
       <course>0.0</course>
  <speed>0.0</speed>
       </trkpt>
      <trkpt lat="48.115580" lon="11.284837">
       <time>2017-05-16T08:03:36Z</time>
       <course>0.0</course>
  <speed>0.0</speed>
       </trkpt>
      <trkpt lat="48.115580" lon="11.284837">
       <time>2017-05-16T08:03:38Z</time>
       <course>0.0</course>
  <speed>0.0</speed>
       </trkpt>
      <trkpt lat="48.115580" lon="11.284837">
       <time>2017-05-16T08:03:40Z</time>
       <course>0.0</course>
  <speed>0.0</speed>
       </trkpt>
      <trkpt lat="48.115580" lon="11.284837">
       <time>2017-05-16T08:03:42Z</time>
       <course>0.0</course>
  <speed>0.0</speed>
       </trkpt>
      <trkpt lat="48.115580" lon="11.284837">
       <time>2017-05-16T08:03:44Z</time>
       <course>0.0</course>
  <speed>0.0</speed>
       </trkpt>
      <trkpt lat="48.115580" lon="11.284837">
       <time>2017-05-16T08:03:46Z</time>
       <course>0.0</course>
  <speed>0.0</speed>
       </trkpt>
      <trkpt lat="48.115580" lon="11.284837">
       <time>2017-05-16T08:03:48Z</time>
       <course>0.0</course>
  <speed>0.0</speed>
       </trkpt>
      <trkpt lat="48.115580" lon="11.284837">
       <time>2017-05-16T08:03:50Z</time>
       <course>0.0</course>
  <speed>0.0</speed>
       </trkpt>
      <trkpt lat="48.115580" lon="11.284837">
       <time>2017-05-16T08:03:52Z</time>
       <course>0.0</course>
  <speed>0.0</speed>
       </trkpt>
      <trkpt lat="48.115580" lon="11.284837">
       <time>2017-05-16T08:03:54Z</time>
       <course>0.0</course>
  <speed>0.0</speed>
       </trkpt>
      <trkpt lat="48.115580" lon="11.284837">
       <time>2017-05-16T08:03:56Z</time>
       <course>0.0</course>
  <speed>0.0</speed>
       </trkpt>
      <trkpt lat="48.115580" lon="11.284837">
       <time>2017-05-16T08:03:58Z</time>
       <course>0.0</course>
  <speed>0.0</speed>
       </trkpt>
      <trkpt lat="48.115580" lon="11.284837">
       <time>2017-05-16T08:04:00Z</time>
       <course>0.0</course>
  <speed>0.0</speed>
       </trkpt>
      <trkpt lat="48.115580" lon="11.284837">
       <time>2017-05-16T08:04:02Z</time>
       <course>0.0</course>
  <speed>0.0</speed>
       </trkpt>
      <trkpt lat="48.115580" lon="11.284837">
       <time>2017-05-16T08:04:04Z</time>
       <course>0.0</course>
  <speed>0.0</speed>
       </trkpt>
      <trkpt lat="48.115580" lon="11.284837">
       <time>2017-05-16T08:04:06Z</time>
       <course>0.0</course>
  <speed>0.0</speed>
       </trkpt>
      <trkpt lat="48.115580" lon="11.284837">
       <time>2017-05-16T08:04:08Z</time>
       <course>0.0</course>
  <speed>0.0</speed>
       </trkpt>
      <trkpt lat="48.115580" lon="11.284837">
       <time>2017-05-16T08:04:10Z</time>
       <course>0.0</course>
  <speed>0.0</speed>
       </trkpt>
      <trkpt lat="48.115580" lon="11.284837">
       <time>2017-05-16T08:04:12Z</time>
       <course>0.0</course>
  <speed>0.0</speed>
       </trkpt>
      <trkpt lat="48.115580" lon="11.284837">
       <time>2017-05-16T08:04:14Z</time>
       <course>0.0</course>
  <speed>0.0</speed>
       </trkpt>
      <trkpt lat="48.115580" lon="11.284837">
       <time>2017-05-16T08:04:16Z</time>
       <course>0.0</course>
  <speed>0.0</speed>
       </trkpt>
      <trkpt lat="48.115580" lon="11.284837">
       <time>2017-05-16T08:04:18Z</time>
       <course>0.0</course>
  <speed>0.0</speed>
       </trkpt>
      <trkpt lat="48.115580" lon="11.284837">
       <time>2017-05-16T08:04:20Z</time>
       <course>0.0</course>
  <speed>0.0</speed>
       </trkpt>
      <trkpt lat="48.115580" lon="11.284837">
       <time>2017-05-16T08:04:22Z</time>
       <course>0.0</course>
  <speed>0.0</speed>
       </trkpt>
      <trkpt lat="48.115580" lon="11.284837">
       <time>2017-05-16T08:04:24Z</time>
       <course>0.0</course>
  <speed>0.0</speed>
       </trkpt>
      <trkpt lat="48.115580" lon="11.284837">
       <time>2017-05-16T08:04:26Z</time>
       <course>0.0</course>
  <speed>0.0</speed>
       </trkpt>
      <trkpt lat="48.115580" lon="11.284837">
       <time>2017-05-16T08:04:28Z</time>
       <course>0.0</course>
  <speed>0.0</speed>
       </trkpt>
      <trkpt lat="48.115580" lon="11.284837">
       <time>2017-05-16T08:04:30Z</time>
       <course>0.0</course>
  <speed>0.0</speed>
       </trkpt>
      <trkpt lat="48.115580" lon="11.284837">
       <time>2017-05-16T08:04:32Z</time>
       <course>0.0</course>
  <speed>0.0</speed>
       </trkpt>
      <trkpt lat="48.115580" lon="11.284837">
       <time>2017-05-16T08:04:34Z</time>
       <course>0.0</course>
  <speed>0.0</speed>
       </trkpt>
      <trkpt lat="48.115580" lon="11.284837">
       <time>2017-05-16T08:04:36Z</time>
       <course>0.0</course>
  <speed>0.0</speed>
       </trkpt>
      <trkpt lat="48.115580" lon="11.284837">
       <time>2017-05-16T08:04:38Z</time>
       <course>0.0</course>
  <speed>0.0</speed>
       </trkpt>
      <trkpt lat="48.115580" lon="11.284837">
       <time>2017-05-16T08:04:40Z</time>
       <course>0.0</course>
  <speed>0.0</speed>
       </trkpt>
      <trkpt lat="48.115580" lon="11.284837">
       <time>2017-05-16T08:04:42Z</time>
       <course>0.0</course>
  <speed>0.0</speed>
       </trkpt>
      <trkpt lat="48.115580" lon="11.284837">
       <time>2017-05-16T08:04:44Z</time>
       <course>0.0</course>
  <speed>0.0</speed>
       </trkpt>
      <trkpt lat="48.115582" lon="11.284823">
       <time>2017-05-16T08:04:46Z</time>
       <course>0.0</course>
  <speed>0.0</speed>
       </trkpt>
      <trkpt lat="48.115582" lon="11.284817">
       <time>2017-05-16T08:04:48Z</time>
       <course>0.0</course>
  <speed>0.0</speed>
       </trkpt>
      <trkpt lat="48.115582" lon="11.284817">
       <time>2017-05-16T08:04:50Z</time>
       <course>0.0</course>
  <speed>0.0</speed>
       </trkpt>
      <trkpt lat="48.115582" lon="11.284817">
       <time>2017-05-16T08:04:52Z</time>
       <course>0.0</course>
  <speed>0.0</speed>
       </trkpt>
      <trkpt lat="48.115582" lon="11.284817">
       <time>2017-05-16T08:04:54Z</time>
       <course>0.0</course>
  <speed>0.0</speed>
       </trkpt>
      <trkpt lat="48.115582" lon="11.284817">
       <time>2017-05-16T08:04:56Z</time>
       <course>0.0</course>
  <speed>0.0</speed>
       </trkpt>
      <trkpt lat="48.115582" lon="11.284817">
       <time>2017-05-16T08:04:58Z</time>
       <course>0.0</course>
  <speed>0.0</speed>
       </trkpt>
    </trkseg>
 </trk>
</gpx>